Time;durP1;ratioP1;P1;durP2;ratioP2;P2;SDS_P1;SDS_P2;PMS_P1;PMS_P2;Temp;Humidity;BMP_temperature;BMP_pressure;BME280_temperature;BME280_humidity;BME280_pressure;Samples;Min_cycle;Max_cycle;Signal;HPM_P1;HPM_P2
2021/05/01 00:01:55;;;;;;;1.45;0.30;;;15.70;35.30;;;;;;4388123;32;20057;-31
2021/05/01 00:04:21;;;;;;;1.23;0.47;;;15.70;35.40;;;;;;4386448;32;20084;-32
2021/05/01 00:06:48;;;;;;;1.27;0.40;;;15.70;35.40;;;;;;4388017;32;20073;-31
2021/05/01 00:09:14;;;;;;;1.05;0.50;;;15.60;35.50;;;;;;4388064;32;20133;-31
2021/05/01 00:11:41;;;;;;;1.85;0.40;;;15.60;35.60;;;;;;4386380;32;20089;-32
2021/05/01 00:14:07;;;;;;;3.20;0.40;;;15.60;35.80;;;;;;4387934;32;20152;-32
2021/05/01 00:16:34;;;;;;;0.50;0.30;;;15.50;35.90;;;;;;4387325;32;20065;-31
2021/05/01 00:19:00;;;;;;;4.03;0.40;;;15.50;35.90;;;;;;4372701;32;20463;-31
2021/05/01 00:21:27;;;;;;;3.72;0.85;;;15.50;36.00;;;;;;4372675;32;20105;-31
2021/05/01 00:23:53;;;;;;;1.87;0.40;;;15.50;36.10;;;;;;4370906;32;20498;-31
2021/05/01 00:26:20;;;;;;;0.62;0.40;;;15.50;36.20;;;;;;4372650;32;20074;-30
2021/05/01 00:28:48;;;;;;;2.20;0.65;;;15.50;36.30;;;;;;4371601;32;20069;-32
2021/05/01 00:31:17;;;;;;;3.42;0.40;;;15.50;36.40;;;;;;4372944;32;20538;-31
2021/05/01 00:33:45;;;;;;;0.30;0.30;;;15.50;36.40;;;;;;4372724;32;20514;-32
2021/05/01 00:36:11;;;;;;;2.53;0.68;;;15.50;36.40;;;;;;4372780;32;20073;-31
2021/05/01 00:38:38;;;;;;;2.60;0.40;;;15.60;36.50;;;;;;4371356;32;20069;-32
2021/05/01 00:41:05;;;;;;;1.20;0.30;;;15.60;36.50;;;;;;4375320;32;20046;-34
2021/05/01 00:43:31;;;;;;;2.17;0.70;;;15.70;36.40;;;;;;4375154;32;20494;-32
2021/05/01 00:46:04;;;;;;;0.43;0.30;;;15.70;36.50;;;;;;4375445;32;20142;-32
2021/05/01 00:48:31;;;;;;;1.12;0.40;;;15.80;36.50;;;;;;4375245;32;20078;-33
2021/05/01 00:50:59;;;;;;;0.50;0.40;;;15.80;36.60;;;;;;4375247;32;20086;-31
2021/05/01 00:53:26;;;;;;;0.95;0.40;;;15.80;36.60;;;;;;4373570;32;20482;-33
2021/05/01 00:55:53;;;;;;;0.47;0.30;;;15.80;36.80;;;;;;4375116;32;20526;-32
2021/05/01 00:58:20;;;;;;;1.75;0.40;;;15.70;37.30;;;;;;4375767;32;20061;-33
2021/05/01 01:03:13;;;;;;;2.33;0.45;;;15.60;38.10;;;;;;4373691;32;20069;-32
2021/05/01 01:05:39;;;;;;;3.97;0.73;;;15.60;38.80;;;;;;4374754;32;20101;-31
2021/05/01 01:08:06;;;;;;;0.40;0.30;;;15.50;40.60;;;;;;4375135;32;20170;-32
2021/05/01 01:10:32;;;;;;;0.47;0.40;;;15.40;40.60;;;;;;4374814;32;20555;-31
2021/05/01 01:12:59;;;;;;;2.45;0.70;;;15.30;41.60;;;;;;4373458;32;20526;-32
2021/05/01 01:15:30;;;;;;;2.15;0.68;;;15.30;42.30;;;;;;4374867;32;20130;-31
2021/05/01 01:17:56;;;;;;;0.60;0.47;;;15.20;42.40;;;;;;4383978;32;20065;-31
2021/05/01 01:20:23;;;;;;;1.98;0.57;;;15.10;42.90;;;;;;4390077;32;20066;-33
2021/05/01 01:22:50;;;;;;;1.58;0.57;;;15.10;43.20;;;;;;4388339;32;20653;-32
2021/05/01 01:25:17;;;;;;;3.03;0.52;;;15.00;43.70;;;;;;4388605;32;20065;-31
2021/05/01 01:27:45;;;;;;;0.85;0.50;;;15.00;43.60;;;;;;4389580;32;20175;-32
2021/05/01 01:30:13;;;;;;;4.03;0.60;;;15.00;43.60;;;;;;4388660;32;20162;-35
2021/05/01 01:32:40;;;;;;;1.73;0.60;;;15.00;43.80;;;;;;4389615;32;20112;-31
2021/05/01 01:35:08;;;;;;;2.22;0.50;;;15.00;44.30;;;;;;4390038;32;20508;-33
2021/05/01 01:37:35;;;;;;;1.15;0.40;;;14.90;44.20;;;;;;4389780;32;20065;-35
2021/05/01 01:40:03;;;;;;;3.92;0.57;;;14.90;44.30;;;;;;4375810;32;20131;-31
2021/05/01 01:42:29;;;;;;;0.77;0.62;;;14.90;44.70;;;;;;4389674;32;20058;-31
2021/05/01 01:44:56;;;;;;;0.88;0.60;;;14.90;44.90;;;;;;4389562;32;20070;-32
2021/05/01 01:47:23;;;;;;;2.30;0.50;;;14.90;45.10;;;;;;4389384;32;20502;-31
2021/05/01 01:49:50;;;;;;;0.98;0.52;;;14.90;45.20;;;;;;4375600;32;20090;-33
2021/05/01 01:52:16;;;;;;;2.70;0.65;;;14.90;45.30;;;;;;4388989;32;20054;-33
2021/05/01 01:54:42;;;;;;;0.88;0.52;;;14.90;45.40;;;;;;4389165;32;20477;-35
2021/05/01 01:57:09;;;;;;;2.15;0.50;;;14.90;45.40;;;;;;4389562;32;20270;-35
2021/05/01 01:59:35;;;;;;;0.98;0.60;;;14.90;45.40;;;;;;4389265;32;20081;-35
2021/05/01 02:02:02;;;;;;;0.62;0.40;;;14.90;45.60;;;;;;4387703;32;20070;-30
2021/05/01 02:04:28;;;;;;;1.27;0.40;;;14.90;45.60;;;;;;4389388;32;20525;-31
2021/05/01 02:06:55;;;;;;;4.87;0.50;;;14.90;45.60;;;;;;4388031;32;20097;-31
2021/05/01 02:09:21;;;;;;;3.78;0.60;;;14.90;45.60;;;;;;4389767;32;20085;-31
2021/05/01 02:11:47;;;;;;;1.25;0.60;;;15.00;45.80;;;;;;4389229;32;20103;-33
2021/05/01 02:14:14;;;;;;;0.88;0.50;;;15.00;46.00;;;;;;4388840;32;20474;-31
2021/05/01 02:16:40;;;;;;;1.67;0.40;;;15.00;46.10;;;;;;4387634;32;20084;-32
2021/05/01 02:19:07;;;;;;;0.55;0.40;;;15.00;46.10;;;;;;4374333;32;20073;-32
2021/05/01 02:21:33;;;;;;;1.85;0.50;;;15.10;46.20;;;;;;4374048;32;20137;-33
2021/05/01 02:24:00;;;;;;;1.87;0.62;;;15.10;46.10;;;;;;4374154;32;20495;-31
2021/05/01 02:26:26;;;;;;;2.47;0.43;;;15.20;46.30;;;;;;4374374;32;20502;-35
2021/05/01 02:28:53;;;;;;;1.33;0.40;;;15.30;46.00;;;;;;4374209;32;20210;-32
2021/05/01 02:31:20;;;;;;;1.85;0.60;;;15.30;45.90;;;;;;4371152;32;20093;-34
2021/05/01 02:33:46;;;;;;;1.52;0.40;;;15.40;45.90;;;;;;4371151;32;20641;-31
2021/05/01 02:36:13;;;;;;;0.90;0.50;;;15.40;45.80;;;;;;4371144;32;20091;-32
2021/05/01 02:38:39;;;;;;;3.22;0.45;;;15.40;45.50;;;;;;4371302;32;20568;-33
2021/05/01 02:41:05;;;;;;;1.35;0.57;;;15.40;45.50;;;;;;4371575;32;20058;-31
2021/05/01 02:43:32;;;;;;;1.00;0.50;;;15.40;45.60;;;;;;4371127;32;20085;-32
2021/05/01 02:46:02;;;;;;;2.40;0.95;;;15.40;45.80;;;;;;4371381;32;20127;-32
2021/05/01 02:48:32;;;;;;;1.30;0.47;;;15.30;45.70;;;;;;4370537;32;20066;-32
2021/05/01 02:51:02;;;;;;;12.90;0.70;;;15.30;45.70;;;;;;4371027;32;20094;-32
2021/05/01 02:53:28;;;;;;;1.50;0.40;;;15.30;45.50;;;;;;4370930;32;20152;-33
2021/05/01 02:55:54;;;;;;;7.93;0.60;;;15.30;45.40;;;;;;4371022;32;20096;-31
2021/05/01 02:58:21;;;;;;;3.22;0.70;;;15.30;45.40;;;;;;4370977;32;20491;-32
2021/05/01 03:00:47;;;;;;;3.62;0.60;;;15.30;45.60;;;;;;4371208;32;20153;-31
2021/05/01 03:03:14;;;;;;;0.93;0.50;;;15.20;45.80;;;;;;4369795;32;20070;-32
2021/05/01 03:05:40;;;;;;;1.12;0.40;;;15.30;46.10;;;;;;4370541;32;20086;-31
2021/05/01 03:08:07;;;;;;;1.20;0.57;;;15.30;46.30;;;;;;4347056;32;20101;-31
2021/05/01 03:10:33;;;;;;;0.95;0.32;;;15.40;46.70;;;;;;4373267;32;20089;-32
2021/05/01 03:12:59;;;;;;;0.73;0.50;;;15.40;46.60;;;;;;4373198;32;20057;-32
2021/05/01 03:15:26;;;;;;;0.70;0.45;;;15.50;46.60;;;;;;4373074;32;20085;-33
2021/05/01 03:17:53;;;;;;;0.93;0.50;;;15.50;46.40;;;;;;4377978;32;20557;-32
2021/05/01 03:20:20;;;;;;;0.70;0.52;;;15.60;45.90;;;;;;4373135;32;20092;-33
2021/05/01 03:22:47;;;;;;;0.50;0.40;;;15.60;45.60;;;;;;4373158;32;20054;-32
2021/05/01 03:25:15;;;;;;;1.30;0.50;;;15.70;45.70;;;;;;4373115;32;20050;-34
2021/05/01 03:27:42;;;;;;;0.52;0.32;;;15.70;45.70;;;;;;4373372;32;20065;-32
2021/05/01 03:30:14;;;;;;;0.75;0.50;;;15.70;46.10;;;;;;4373033;32;20158;-32
2021/05/01 03:32:41;;;;;;;0.85;0.40;;;15.80;46.30;;;;;;4373084;32;20548;-32
2021/05/01 03:35:09;;;;;;;0.85;0.47;;;15.80;46.20;;;;;;4373131;32;20139;-31
2021/05/01 03:37:36;;;;;;;1.37;0.50;;;15.80;45.90;;;;;;4373197;32;20070;-32
2021/05/01 03:40:05;;;;;;;0.62;0.30;;;15.80;46.10;;;;;;4372779;32;20123;-33
2021/05/01 03:42:31;;;;;;;4.65;0.47;;;15.80;45.70;;;;;;4372939;32;20070;-33
2021/05/01 03:44:58;;;;;;;0.60;0.30;;;15.90;45.50;;;;;;4373207;32;20434;-37
2021/05/01 03:47:24;;;;;;;1.62;0.40;;;15.90;45.00;;;;;;4372874;32;20218;-35
2021/05/01 03:49:51;;;;;;;3.05;0.50;;;16.00;44.50;;;;;;4372888;32;20184;-32
2021/05/01 03:52:17;;;;;;;2.80;0.93;;;16.00;44.40;;;;;;4373146;32;20062;-32
2021/05/01 03:54:46;;;;;;;2.35;0.40;;;16.00;44.40;;;;;;4373104;32;20529;-34
2021/05/01 03:57:13;;;;;;;0.60;0.40;;;16.00;44.50;;;;;;4372803;32;20166;-32
2021/05/01 03:59:39;;;;;;;0.40;0.30;;;16.00;44.30;;;;;;4372870;32;20155;-32
2021/05/01 04:02:06;;;;;;;0.85;0.50;;;16.00;44.00;;;;;;4372931;32;20059;-34
2021/05/01 04:04:33;;;;;;;3.15;0.57;;;16.00;43.50;;;;;;4372751;32;20161;-32
2021/05/01 04:06:59;;;;;;;3.03;0.40;;;16.00;43.00;;;;;;4372442;32;20536;-33
2021/05/01 04:09:26;;;;;;;1.02;0.40;;;16.10;42.80;;;;;;4372472;32;20149;-34
2021/05/01 04:11:52;;;;;;;2.35;0.50;;;16.10;42.70;;;;;;4372953;32;20582;-32
2021/05/01 04:14:19;;;;;;;0.75;0.40;;;16.10;42.80;;;;;;4373494;32;20068;-34
2021/05/01 04:16:45;;;;;;;0.55;0.35;;;16.00;42.80;;;;;;4374371;32;20074;-33
2021/05/01 04:19:12;;;;;;;2.08;0.45;;;16.00;42.80;;;;;;4375950;32;20078;-35
2021/05/01 04:21:38;;;;;;;1.48;0.62;;;16.10;42.80;;;;;;4376061;32;20062;-34
2021/05/01 04:24:06;;;;;;;0.95;0.40;;;16.20;42.80;;;;;;4376016;32;20069;-36
2021/05/01 04:26:33;;;;;;;2.35;0.37;;;16.20;42.70;;;;;;4375700;32;20070;-34
2021/05/01 04:29:00;;;;;;;4.80;0.40;;;16.20;42.50;;;;;;4375468;32;20197;-33
2021/05/01 04:31:26;;;;;;;1.37;0.47;;;16.30;42.50;;;;;;4375584;32;20146;-33
2021/05/01 04:33:53;;;;;;;2.53;0.57;;;16.30;42.40;;;;;;4374342;32;20591;-33
2021/05/01 04:36:19;;;;;;;6.55;0.37;;;16.30;42.10;;;;;;4375444;32;20063;-32
2021/05/01 04:38:46;;;;;;;3.35;0.60;;;16.40;42.10;;;;;;4375245;32;20138;-32
2021/05/01 04:41:12;;;;;;;2.87;0.40;;;16.40;41.90;;;;;;4375161;32;20080;-32
2021/05/01 04:43:41;;;;;;;3.83;0.40;;;16.40;41.70;;;;;;4375315;32;20497;-32
2021/05/01 04:46:08;;;;;;;1.15;0.40;;;16.40;41.70;;;;;;4375618;32;20074;-32
2021/05/01 04:48:34;;;;;;;3.20;0.50;;;16.50;41.60;;;;;;4374772;32;20156;-32
2021/05/01 04:51:01;;;;;;;0.68;0.30;;;16.60;41.40;;;;;;4374225;32;20097;-33
2021/05/01 04:53:27;;;;;;;0.80;0.37;;;16.60;41.20;;;;;;4374716;32;20054;-34
2021/05/01 04:55:54;;;;;;;1.35;0.37;;;16.70;41.00;;;;;;4375063;32;20054;-35
2021/05/01 04:58:20;;;;;;;1.10;0.40;;;16.80;41.00;;;;;;4375064;32;20066;-33
2021/05/01 05:00:46;;;;;;;1.70;0.32;;;16.90;40.90;;;;;;4375248;32;20066;-33
2021/05/01 05:03:13;;;;;;;5.78;0.50;;;16.90;40.70;;;;;;4375461;32;20058;-32
2021/05/01 05:05:39;;;;;;;2.67;1.05;;;17.00;40.80;;;;;;4375245;32;20102;-35
2021/05/01 05:08:06;;;;;;;2.78;0.40;;;17.00;40.80;;;;;;4375191;32;20144;-33
2021/05/01 05:10:32;;;;;;;0.70;0.40;;;17.00;41.00;;;;;;4375293;32;20090;-33
2021/05/01 05:13:00;;;;;;;1.42;0.40;;;16.90;41.00;;;;;;4373664;32;20077;-32
2021/05/01 05:15:26;;;;;;;0.57;0.37;;;16.80;41.20;;;;;;4375113;32;20090;-33
2021/05/01 05:17:53;;;;;;;0.98;0.40;;;16.80;41.30;;;;;;4374507;32;20144;-33
2021/05/01 05:20:20;;;;;;;3.53;0.40;;;16.70;41.40;;;;;;4374936;32;20173;-35
2021/05/01 05:22:47;;;;;;;1.50;0.40;;;16.70;41.80;;;;;;4374733;32;20065;-33
2021/05/01 05:25:13;;;;;;;1.67;0.60;;;16.70;42.30;;;;;;4374369;32;20081;-34
2021/05/01 05:27:40;;;;;;;2.75;0.60;;;16.70;42.50;;;;;;4374472;32;20082;-33
2021/05/01 05:30:07;;;;;;;1.10;0.50;;;16.70;42.80;;;;;;4373424;32;20143;-33
2021/05/01 05:32:34;;;;;;;1.37;0.60;;;16.60;42.70;;;;;;4374591;32;20062;-33
2021/05/01 05:35:00;;;;;;;1.40;0.45;;;16.60;42.70;;;;;;4374893;32;20078;-36
2021/05/01 05:37:26;;;;;;;2.67;0.30;;;16.60;42.50;;;;;;4374736;32;20074;-33
2021/05/01 05:39:53;;;;;;;2.25;0.40;;;16.60;42.30;;;;;;4374458;32;20568;-34
2021/05/01 05:42:21;;;;;;;2.45;0.90;;;16.60;42.40;;;;;;4374626;32;20580;-33
2021/05/01 05:44:49;;;;;;;2.45;0.50;;;16.70;42.50;;;;;;4373139;32;20061;-33
2021/05/01 05:47:18;;;;;;;1.20;0.60;;;16.70;42.50;;;;;;4359160;32;20074;-33
2021/05/01 05:49:44;;;;;;;1.37;0.50;;;16.80;42.50;;;;;;4371999;32;20066;-32
2021/05/01 05:52:11;;;;;;;3.08;0.50;;;16.80;42.30;;;;;;4359246;32;20092;-32
2021/05/01 05:54:38;;;;;;;1.75;0.40;;;16.80;42.50;;;;;;4371801;32;20070;-32
2021/05/01 05:57:08;;;;;;;4.15;1.27;;;16.80;42.60;;;;;;4371459;32;20072;-32
2021/05/01 05:59:35;;;;;;;2.15;0.50;;;16.80;42.80;;;;;;4372231;32;20159;-32
2021/05/01 06:02:03;;;;;;;0.70;0.40;;;16.80;42.90;;;;;;4371446;32;20070;-36
2021/05/01 06:05:31;;;;;;;1.37;0.47;;;16.70;43.20;;;;;;4372024;32;20541;-32
2021/05/01 06:08:05;;;;;;;0.65;0.43;;;16.70;43.50;;;;;;4362184;32;20125;-32
2021/05/01 06:10:32;;;;;;;1.20;0.50;;;16.60;43.80;;;;;;4372100;32;20074;-32
2021/05/01 06:13:00;;;;;;;0.70;0.50;;;16.50;44.20;;;;;;4371639;32;20243;-33
2021/05/01 06:15:26;;;;;;;2.67;0.98;;;16.40;44.50;;;;;;4359164;32;20538;-32
2021/05/01 06:17:54;;;;;;;2.22;0.55;;;16.40;44.80;;;;;;4368689;32;20189;-33
2021/05/01 06:20:20;;;;;;;1.08;0.60;;;16.30;45.00;;;;;;4371968;32;20074;-33
2021/05/01 06:22:50;;;;;;;1.20;0.50;;;16.30;45.10;;;;;;4373762;32;20589;-32
2021/05/01 06:25:16;;;;;;;2.20;0.70;;;16.30;45.70;;;;;;4372430;32;20078;-34
2021/05/01 06:27:43;;;;;;;1.33;0.45;;;16.30;46.80;;;;;;4373722;32;20146;-34
2021/05/01 06:30:13;;;;;;;1.40;0.80;;;16.30;47.10;;;;;;4372222;32;20134;-36
2021/05/01 06:32:39;;;;;;;0.95;0.47;;;16.30;47.00;;;;;;4373806;32;20058;-35
2021/05/01 06:35:07;;;;;;;2.37;0.50;;;16.20;47.10;;;;;;4373687;32;20076;-33
2021/05/01 06:37:33;;;;;;;5.10;0.65;;;16.10;46.90;;;;;;4373515;32;20059;-33
2021/05/01 06:40:07;;;;;;;1.35;0.60;;;16.00;47.50;;;;;;4359561;32;20085;-35
2021/05/01 06:42:38;;;;;;;0.68;0.52;;;15.90;47.60;;;;;;4372045;32;20066;-37
2021/05/01 06:45:10;;;;;;;1.12;0.50;;;15.70;47.90;;;;;;4373735;32;20452;-37
2021/05/01 06:47:58;;;;;;;2.25;0.88;;;15.70;48.70;;;;;;4373286;32;20074;-37
2021/05/01 06:50:26;;;;;;;1.67;0.70;;;15.60;48.50;;;;;;4365610;32;20175;-36
2021/05/01 06:52:53;;;;;;;1.87;0.90;;;15.60;48.80;;;;;;4373492;32;20081;-34
2021/05/01 06:55:21;;;;;;;2.17;0.70;;;15.60;49.10;;;;;;4373389;32;20153;-34
2021/05/01 06:57:57;;;;;;;1.95;0.93;;;15.50;49.20;;;;;;4373602;32;20061;-33
2021/05/01 07:00:25;;;;;;;1.30;1.05;;;15.50;49.50;;;;;;4371831;32;20489;-32
2021/05/01 07:03:05;;;;;;;1.90;1.30;;;15.60;49.90;;;;;;4372211;32;20085;-32
2021/05/01 07:05:32;;;;;;;5.18;0.85;;;15.60;50.30;;;;;;4372934;32;20109;-31
2021/05/01 07:07:59;;;;;;;2.65;0.90;;;15.60;50.40;;;;;;4373278;32;20082;-32
2021/05/01 07:10:25;;;;;;;0.90;0.80;;;15.60;50.10;;;;;;4371498;32;20070;-38
2021/05/01 07:12:52;;;;;;;1.27;0.70;;;15.60;50.30;;;;;;4373120;32;20054;-35
2021/05/01 07:15:19;;;;;;;2.50;1.08;;;15.60;50.80;;;;;;4372705;32;20115;-35
2021/05/01 07:17:53;;;;;;;2.25;1.08;;;15.60;50.40;;;;;;4371249;32;20069;-31
2021/05/01 07:20:20;;;;;;;2.12;0.80;;;15.60;50.60;;;;;;4373014;32;20183;-33
2021/05/01 07:22:50;;;;;;;1.02;0.77;;;15.60;50.20;;;;;;4371386;32;20595;-35
2021/05/01 07:25:16;;;;;;;5.62;1.15;;;15.60;50.30;;;;;;4371751;32;20062;-36
2021/05/01 07:28:04;;;;;;;2.87;0.95;;;15.60;50.00;;;;;;4373115;32;20100;-36
2021/05/01 07:30:37;;;;;;;1.10;0.85;;;15.60;50.50;;;;;;4372947;32;20549;-34
2021/05/01 07:33:27;;;;;;;2.67;0.88;;;15.60;50.90;;;;;;4371316;32;20127;-37
2021/05/01 07:35:56;;;;;;;1.02;0.77;;;15.60;51.10;;;;;;4361236;32;20062;-37
2021/05/01 07:38:24;;;;;;;2.80;0.90;;;15.60;51.30;;;;;;4372538;32;20558;-35
2021/05/01 07:40:52;;;;;;;1.23;0.68;;;15.60;51.40;;;;;;4372867;32;20515;-36
2021/05/01 07:43:20;;;;;;;1.45;0.80;;;15.70;51.20;;;;;;4372954;32;20596;-34
2021/05/01 07:45:47;;;;;;;1.77;0.70;;;15.70;51.10;;;;;;4372936;32;20522;-36
2021/05/01 07:48:15;;;;;;;3.40;0.95;;;15.70;51.10;;;;;;4372843;32;20100;-35
2021/05/01 07:50:43;;;;;;;1.70;0.70;;;15.90;51.10;;;;;;4371567;32;20058;-35
2021/05/01 07:53:10;;;;;;;2.00;0.70;;;16.00;50.70;;;;;;4371646;32;20159;-38
2021/05/01 07:55:37;;;;;;;1.73;1.00;;;16.10;50.10;;;;;;4358728;32;20542;-36
2021/05/01 07:58:04;;;;;;;1.42;0.73;;;16.20;50.00;;;;;;4372806;32;20606;-36
2021/05/01 08:00:30;;;;;;;1.17;0.70;;;16.40;49.70;;;;;;4372443;32;20474;-36
2021/05/01 08:02:57;;;;;;;1.05;0.70;;;16.50;48.40;;;;;;4372628;32;20081;-36
2021/05/01 08:05:23;;;;;;;4.68;1.10;;;16.70;48.20;;;;;;4371246;32;20538;-39
2021/05/01 08:07:50;;;;;;;1.83;0.70;;;16.80;47.70;;;;;;4373276;32;20070;-35
2021/05/01 08:10:17;;;;;;;2.70;0.60;;;16.90;47.20;;;;;;4372785;32;20064;-35
2021/05/01 08:12:43;;;;;;;1.48;0.55;;;17.00;46.40;;;;;;4372875;32;20585;-37
2021/05/01 08:15:10;;;;;;;0.80;0.50;;;17.10;45.90;;;;;;4372665;32;20062;-36
2021/05/01 08:17:37;;;;;;;2.20;0.60;;;17.20;45.40;;;;;;4372474;32;20178;-36
2021/05/01 08:20:04;;;;;;;0.82;0.50;;;17.30;44.80;;;;;;4371217;32;20097;-36
2021/05/01 08:22:30;;;;;;;0.70;0.57;;;17.40;44.70;;;;;;4372755;32;20154;-36
2021/05/01 08:24:57;;;;;;;0.43;0.40;;;17.50;44.00;;;;;;4372670;32;20515;-37
2021/05/01 08:27:25;;;;;;;2.35;0.40;;;17.60;43.50;;;;;;4372265;32;20076;-36
2021/05/01 08:29:51;;;;;;;2.12;0.50;;;17.60;43.50;;;;;;4372686;32;20511;-38
2021/05/01 08:32:18;;;;;;;1.27;0.45;;;17.70;43.40;;;;;;4372377;32;20223;-36
2021/05/01 08:34:44;;;;;;;0.90;0.50;;;17.70;44.00;;;;;;4372824;32;20082;-37
2021/05/01 08:37:12;;;;;;;0.82;0.50;;;17.80;43.00;;;;;;4372801;32;20082;-34
2021/05/01 08:39:38;;;;;;;1.35;0.50;;;17.90;42.90;;;;;;4372498;32;20094;-35
2021/05/01 08:42:05;;;;;;;1.27;0.40;;;17.90;42.50;;;;;;4372294;32;20503;-35
2021/05/01 08:44:31;;;;;;;2.15;0.73;;;18.00;42.60;;;;;;4372709;32;20066;-36
2021/05/01 08:46:58;;;;;;;0.90;0.57;;;18.00;42.40;;;;;;4371978;32;20094;-35
2021/05/01 08:49:25;;;;;;;1.80;0.62;;;18.10;42.30;;;;;;4370677;32;20058;-35
2021/05/01 08:51:52;;;;;;;1.50;0.50;;;18.20;42.30;;;;;;4372067;32;20172;-36
2021/05/01 08:54:18;;;;;;;1.25;0.50;;;18.20;42.20;;;;;;4370827;32;20104;-36
2021/05/01 08:56:45;;;;;;;0.60;0.50;;;18.20;42.10;;;;;;4372772;32;20185;-35
2021/05/01 08:59:11;;;;;;;1.65;0.50;;;18.20;41.90;;;;;;4372171;32;20093;-36
2021/05/01 09:01:38;;;;;;;1.75;0.88;;;18.20;42.00;;;;;;4374646;32;20081;-36
2021/05/01 09:04:06;;;;;;;0.80;0.50;;;18.20;41.70;;;;;;4375313;32;20502;-35
2021/05/01 09:06:33;;;;;;;3.35;1.08;;;18.20;41.90;;;;;;4373266;32;20074;-34
2021/05/01 09:09:03;;;;;;;0.82;0.40;;;18.20;42.50;;;;;;4374955;32;20070;-36
2021/05/01 09:11:40;;;;;;;2.25;0.60;;;18.20;43.00;;;;;;4374881;32;20501;-38
2021/05/01 09:14:29;;;;;;;2.10;0.82;;;18.30;42.70;;;;;;4373244;32;20554;-35
2021/05/01 09:17:07;;;;;;;1.23;0.40;;;18.30;42.60;;;;;;4378106;32;20069;-34
2021/05/01 09:19:38;;;;;;;2.40;0.68;;;18.30;42.70;;;;;;4389948;32;21166;-33
2021/05/01 09:22:10;;;;;;;1.35;0.50;;;18.40;42.60;;;;;;4388734;32;20450;-35
2021/05/01 09:24:36;;;;;;;4.18;0.60;;;18.40;42.30;;;;;;4371871;32;20062;-34
2021/05/01 09:27:07;;;;;;;2.28;0.50;;;18.50;42.30;;;;;;4372079;32;20062;-35
2021/05/01 09:29:36;;;;;;;1.60;0.88;;;18.60;42.40;;;;;;4372181;32;20161;-34
2021/05/01 09:32:05;;;;;;;1.52;0.50;;;18.70;41.90;;;;;;4371761;32;20147;-33
2021/05/01 09:34:39;;;;;;;2.05;0.80;;;18.80;42.00;;;;;;4372470;32;20069;-36
2021/05/01 09:37:09;;;;;;;1.77;0.60;;;19.00;41.90;;;;;;4372571;32;20170;-36
2021/05/01 09:39:35;;;;;;;2.42;0.50;;;19.10;42.30;;;;;;4359307;32;20069;-35
2021/05/01 09:42:14;;;;;;;2.47;0.50;;;19.20;42.50;;;;;;4359322;32;20081;-34
2021/05/01 09:44:41;;;;;;;1.75;0.82;;;19.30;42.80;;;;;;4371872;32;20688;-35
2021/05/01 09:47:13;;;;;;;1.30;1.02;;;19.40;42.40;;;;;;4347036;32;20062;-35
2021/05/01 09:49:40;;;;;;;0.70;0.50;;;19.60;42.30;;;;;;4371825;32;20065;-35
2021/05/01 09:52:14;;;;;;;0.82;0.50;;;19.70;42.40;;;;;;4371816;32;20062;-33
2021/05/01 09:54:46;;;;;;;2.72;0.68;;;19.80;42.00;;;;;;4373760;32;20135;-34
2021/05/01 09:57:15;;;;;;;1.73;0.50;;;19.80;42.00;;;;;;4389255;32;20089;-34
2021/05/01 09:59:48;;;;;;;0.50;0.40;;;19.80;41.60;;;;;;4389419;32;20181;-33
2021/05/01 10:02:25;;;;;;;4.93;0.70;;;19.90;41.90;;;;;;4389449;32;20159;-34
2021/05/01 10:05:10;;;;;;;3.67;0.50;;;20.00;41.90;;;;;;4389354;32;20073;-35
2021/05/01 10:07:50;;;;;;;3.08;0.60;;;20.10;41.30;;;;;;4389073;32;20089;-35
2021/05/01 10:10:17;;;;;;;3.00;0.62;;;20.10;41.20;;;;;;4389368;32;20072;-35
2021/05/01 10:12:44;;;;;;;1.40;0.60;;;20.20;41.30;;;;;;4387063;32;20097;-35
2021/05/01 10:15:24;;;;;;;1.87;0.50;;;20.20;41.00;;;;;;4388985;32;20093;-35
2021/05/01 10:17:51;;;;;;;0.88;0.70;;;20.30;41.20;;;;;;4380526;32;20079;-34
2021/05/01 10:20:21;;;;;;;5.78;0.60;;;20.30;41.20;;;;;;4373772;32;20080;-36
2021/05/01 10:22:50;;;;;;;2.10;0.90;;;20.40;41.20;;;;;;4373767;32;20550;-36
2021/05/01 10:25:19;;;;;;;4.82;0.80;;;20.40;41.20;;;;;;4372237;32;20068;-40
2021/05/01 10:28:02;;;;;;;1.62;0.80;;;20.50;41.30;;;;;;4373884;32;20060;-38
2021/05/01 10:30:41;;;;;;;0.80;0.68;;;20.60;40.50;;;;;;4373310;32;20066;-38
2021/05/01 10:33:26;;;;;;;4.70;0.40;;;20.60;40.00;;;;;;4372109;32;20468;-39
2021/05/01 10:36:30;;;;;;;0.95;0.50;;;20.60;40.10;;;;;;4374099;32;20526;-39
2021/05/01 10:39:01;;;;;;;1.60;0.52;;;20.70;40.20;;;;;;4373823;32;20066;-34
2021/05/01 10:41:30;;;;;;;1.73;0.70;;;20.70;40.20;;;;;;4373311;32;20078;-35
2021/05/01 10:43:57;;;;;;;0.90;0.60;;;20.70;40.00;;;;;;4360180;32;20139;-36
2021/05/01 10:46:35;;;;;;;1.08;0.40;;;20.60;39.50;;;;;;4374227;32;20570;-35
2021/05/01 10:49:04;;;;;;;4.30;0.60;;;20.60;39.90;;;;;;4373527;32;20061;-35
2021/05/01 10:51:40;;;;;;;6.00;0.85;;;20.60;40.10;;;;;;4371833;32;20069;-36
2021/05/01 10:54:11;;;;;;;2.83;0.90;;;20.70;40.20;;;;;;4373650;32;20642;-36
2021/05/01 10:56:46;;;;;;;8.38;1.10;;;20.70;40.00;;;;;;4373509;32;20590;-33
2021/05/01 10:59:17;;;;;;;2.67;0.60;;;20.80;40.10;;;;;;4373529;32;20065;-35
2021/05/01 11:01:49;;;;;;;4.70;0.98;;;20.90;39.80;;;;;;4372854;32;20060;-35
2021/05/01 11:04:29;;;;;;;3.25;0.85;;;21.00;39.90;;;;;;4373428;32;20160;-35
2021/05/01 11:07:17;;;;;;;4.07;0.88;;;21.10;39.80;;;;;;4373737;32;20055;-36
2021/05/01 11:09:48;;;;;;;6.37;0.70;;;21.10;39.70;;;;;;4372209;32;20082;-35
2021/05/01 11:12:22;;;;;;;4.28;0.57;;;21.20;39.50;;;;;;4373604;32;20155;-36
2021/05/01 11:15:05;;;;;;;2.78;0.55;;;21.30;39.50;;;;;;4371412;32;20066;-35
2021/05/01 11:17:32;;;;;;;1.85;0.60;;;21.40;39.50;;;;;;4379785;32;20070;-40
2021/05/01 11:20:13;;;;;;;1.37;0.65;;;21.50;39.20;;;;;;4388610;32;20069;-36
2021/05/01 11:22:44;;;;;;;2.03;0.60;;;21.60;39.10;;;;;;4388862;32;20081;-36
2021/05/01 11:25:16;;;;;;;0.75;0.55;;;21.80;39.30;;;;;;4387932;32;20088;-35
2021/05/01 11:27:45;;;;;;;5.43;0.68;;;22.00;38.60;;;;;;4388093;32;20050;-36
2021/05/01 11:30:14;;;;;;;2.15;0.57;;;22.30;38.10;;;;;;4388471;32;20068;-36
2021/05/01 11:32:40;;;;;;;2.15;0.70;;;22.50;37.50;;;;;;4388176;32;20074;-36
2021/05/01 11:35:13;;;;;;;1.45;0.70;;;22.70;37.00;;;;;;4386498;32;20532;-41
2021/05/01 11:37:44;;;;;;;3.85;0.70;;;22.90;36.90;;;;;;4388036;32;20061;-40
2021/05/01 11:40:12;;;;;;;5.45;0.47;;;23.10;36.30;;;;;;4386500;32;20478;-39
2021/05/01 11:42:40;;;;;;;1.10;0.43;;;23.40;35.80;;;;;;4387994;32;20062;-40
2021/05/01 11:45:14;;;;;;;2.17;0.80;;;23.60;35.20;;;;;;4388085;32;20514;-39
2021/05/01 11:47:46;;;;;;;4.70;0.50;;;23.80;34.60;;;;;;4388134;32;20135;-41
2021/05/01 11:50:12;;;;;;;5.68;0.80;;;24.10;34.10;;;;;;4388296;32;20164;-40
2021/05/01 11:53:23;;;;;;;1.40;0.40;;;24.30;33.90;;;;;;4373556;32;20084;-40
2021/05/01 11:56:14;;;;;;;0.93;0.60;;;24.60;33.40;;;;;;4385270;32;20093;-41
2021/05/01 11:58:40;;;;;;;5.55;0.52;;;24.80;32.50;;;;;;4374485;32;20098;-41
2021/05/01 12:01:20;;;;;;;2.67;0.50;;;24.90;32.30;;;;;;4372848;32;20536;-39
2021/05/01 12:04:02;;;;;;;10.05;1.00;;;24.90;31.90;;;;;;4384958;32;20069;-41
2021/05/01 12:06:34;;;;;;;2.72;0.50;;;24.90;31.90;;;;;;4385428;32;20085;-41
2021/05/01 12:09:30;;;;;;;0.85;0.65;;;24.80;31.80;;;;;;4384972;32;20183;-39
2021/05/01 12:11:58;;;;;;;1.12;0.60;;;24.80;31.40;;;;;;4368897;32;20062;-41
2021/05/01 12:14:28;;;;;;;2.28;0.47;;;24.80;31.80;;;;;;4385077;32;20065;-41
2021/05/01 12:17:12;;;;;;;1.85;0.50;;;24.80;31.40;;;;;;4369900;32;20072;-41
2021/05/01 12:19:47;;;;;;;2.70;0.60;;;24.80;31.40;;;;;;4370011;32;20108;-40
2021/05/01 12:22:29;;;;;;;3.70;0.68;;;24.70;31.20;;;;;;4370164;32;20643;-42
2021/05/01 12:24:57;;;;;;;2.65;0.60;;;24.70;31.30;;;;;;4357934;32;20085;-40
2021/05/01 12:27:52;;;;;;;8.35;0.60;;;24.50;31.10;;;;;;4370132;32;20151;-40
2021/05/01 12:30:39;;;;;;;1.40;0.70;;;24.20;31.20;;;;;;4369991;32;20074;-40
2021/05/01 12:33:29;;;;;;;2.90;0.50;;;23.90;31.50;;;;;;4371033;32;20071;-41
2021/05/01 12:35:58;;;;;;;2.33;0.55;;;23.60;31.90;;;;;;4373930;32;20106;-39
2021/05/01 12:38:26;;;;;;;7.37;0.82;;;23.40;32.30;;;;;;4375305;32;20069;-42
2021/05/01 12:41:17;;;;;;;1.80;0.50;;;23.10;32.60;;;;;;4375489;32;20072;-40
2021/05/01 12:43:47;;;;;;;4.75;1.00;;;22.90;33.30;;;;;;4375328;32;20092;-40
2021/05/01 12:46:14;;;;;;;4.00;0.50;;;22.90;33.40;;;;;;4375433;32;20119;-41
2021/05/01 12:49:00;;;;;;;3.87;1.00;;;22.80;33.60;;;;;;4375078;32;20099;-41
2021/05/01 12:51:34;;;;;;;4.20;0.70;;;22.70;33.80;;;;;;4373723;32;20607;-40
2021/05/01 12:54:21;;;;;;;2.50;0.90;;;22.70;33.80;;;;;;4375136;32;20124;-42
2021/05/01 12:56:55;;;;;;;1.25;0.55;;;22.70;34.00;;;;;;4374689;32;20611;-40
2021/05/01 12:59:24;;;;;;;1.52;0.50;;;22.70;33.90;;;;;;4375322;32;20066;-40
2021/05/01 13:01:53;;;;;;;1.58;0.60;;;22.70;33.80;;;;;;4374703;32;20489;-41
2021/05/01 13:04:27;;;;;;;2.35;0.75;;;22.70;34.00;;;;;;4375470;32;20058;-40